sensor_id;sensor_type;location;lat;lon;timestamp;P1;durP1;ratioP1;P2;durP2;ratioP2
43327;SDS011;28923;45.412;10.852;2023-06-22T04:32:35;8.90;;;4.50;;
43327;SDS011;28923;45.412;10.852;2023-06-22T04:35:04;7.45;;;5.07;;
43327;SDS011;28923;45.412;10.852;2023-06-22T04:37:31;10.60;;;4.95;;
43327;SDS011;28923;45.412;10.852;2023-06-22T04:39:57;10.18;;;5.13;;
43327;SDS011;28923;45.412;10.852;2023-06-22T04:42:25;8.32;;;5.68;;
43327;SDS011;28923;45.412;10.852;2023-06-22T04:44:51;11.23;;;5.93;;
43327;SDS011;28923;45.412;10.852;2023-06-22T04:47:17;11.27;;;5.95;;
43327;SDS011;28923;45.412;10.852;2023-06-22T04:49:44;9.55;;;6.28;;
43327;SDS011;28923;45.412;10.852;2023-06-22T04:52:10;11.25;;;6.32;;
43327;SDS011;28923;45.412;10.852;2023-06-22T04:54:37;15.40;;;6.32;;
43327;SDS011;28923;45.412;10.852;2023-06-22T04:57:04;11.45;;;5.93;;
43327;SDS011;28923;45.412;10.852;2023-06-22T04:59:30;14.25;;;5.72;;
43327;SDS011;28923;45.412;10.852;2023-06-22T05:01:56;11.73;;;6.05;;
43327;SDS011;28923;45.412;10.852;2023-06-22T05:04:23;10.63;;;5.43;;
43327;SDS011;28923;45.412;10.852;2023-06-22T05:06:50;9.55;;;5.60;;
43327;SDS011;28923;45.412;10.852;2023-06-22T05:09:15;11.02;;;5.45;;
43327;SDS011;28923;45.412;10.852;2023-06-22T05:11:42;11.95;;;5.80;;
43327;SDS011;28923;45.412;10.852;2023-06-22T05:14:08;15.40;;;5.85;;
43327;SDS011;28923;45.412;10.852;2023-06-22T05:16:33;8.80;;;5.07;;
43327;SDS011;28923;45.412;10.852;2023-06-22T05:18:59;11.50;;;5.60;;
43327;SDS011;28923;45.412;10.852;2023-06-22T05:21:26;11.07;;;5.65;;
43327;SDS011;28923;45.412;10.852;2023-06-22T05:23:51;13.95;;;6.18;;
43327;SDS011;28923;45.412;10.852;2023-06-22T05:26:18;12.55;;;5.65;;
43327;SDS011;28923;45.412;10.852;2023-06-22T05:28:43;14.75;;;6.18;;
43327;SDS011;28923;45.412;10.852;2023-06-22T05:31:13;15.93;;;5.50;;
43327;SDS011;28923;45.412;10.852;2023-06-22T05:33:39;13.63;;;6.50;;
43327;SDS011;28923;45.412;10.852;2023-06-22T05:36:05;16.50;;;6.18;;
43327;SDS011;28923;45.412;10.852;2023-06-22T05:38:30;15.77;;;5.55;;
43327;SDS011;28923;45.412;10.852;2023-06-22T05:40:56;10.60;;;5.82;;
43327;SDS011;28923;45.412;10.852;2023-06-22T05:43:21;11.93;;;5.78;;
43327;SDS011;28923;45.412;10.852;2023-06-22T05:45:47;14.63;;;6.22;;
43327;SDS011;28923;45.412;10.852;2023-06-22T05:48:12;14.13;;;5.90;;
43327;SDS011;28923;45.412;10.852;2023-06-22T05:50:37;7.65;;;5.20;;
43327;SDS011;28923;45.412;10.852;2023-06-22T05:53:03;8.85;;;5.43;;
43327;SDS011;28923;45.412;10.852;2023-06-22T05:55:28;11.50;;;6.00;;
43327;SDS011;28923;45.412;10.852;2023-06-22T05:57:54;15.15;;;6.38;;
43327;SDS011;28923;45.412;10.852;2023-06-22T06:00:19;13.63;;;5.72;;
43327;SDS011;28923;45.412;10.852;2023-06-22T06:02:45;12.20;;;5.75;;
43327;SDS011;28923;45.412;10.852;2023-06-22T06:05:11;10.18;;;5.55;;
43327;SDS011;28923;45.412;10.852;2023-06-22T06:07:36;9.65;;;5.55;;
43327;SDS011;28923;45.412;10.852;2023-06-22T06:10:02;13.95;;;5.72;;
43327;SDS011;28923;45.412;10.852;2023-06-22T06:12:29;9.88;;;5.57;;
43327;SDS011;28923;45.412;10.852;2023-06-22T06:14:55;11.65;;;6.03;;
43327;SDS011;28923;45.412;10.852;2023-06-22T06:17:21;14.77;;;5.60;;
43327;SDS011;28923;45.412;10.852;2023-06-22T06:19:47;14.55;;;5.20;;
43327;SDS011;28923;45.412;10.852;2023-06-22T06:22:12;9.32;;;5.28;;
43327;SDS011;28923;45.412;10.852;2023-06-22T06:24:37;10.88;;;5.40;;
43327;SDS011;28923;45.412;10.852;2023-06-22T06:27:03;8.45;;;4.88;;
43327;SDS011;28923;45.412;10.852;2023-06-22T06:29:30;14.20;;;5.68;;
43327;SDS011;28923;45.412;10.852;2023-06-22T06:31:55;7.03;;;4.93;;
43327;SDS011;28923;45.412;10.852;2023-06-22T06:34:22;7.18;;;5.03;;
43327;SDS011;28923;45.412;10.852;2023-06-22T06:36:47;7.68;;;4.85;;
43327;SDS011;28923;45.412;10.852;2023-06-22T06:39:13;10.75;;;4.78;;
43327;SDS011;28923;45.412;10.852;2023-06-22T06:41:38;11.65;;;4.75;;
43327;SDS011;28923;45.412;10.852;2023-06-22T06:44:09;6.55;;;5.00;;
43327;SDS011;28923;45.412;10.852;2023-06-22T06:46:35;6.82;;;4.72;;
43327;SDS011;28923;45.412;10.852;2023-06-22T06:49:00;7.20;;;4.60;;
43327;SDS011;28923;45.412;10.852;2023-06-22T06:51:26;6.20;;;3.92;;
43327;SDS011;28923;45.412;10.852;2023-06-22T06:53:51;8.13;;;4.20;;
43327;SDS011;28923;45.412;10.852;2023-06-22T06:56:17;6.25;;;4.03;;
43327;SDS011;28923;45.412;10.852;2023-06-22T06:58:42;5.45;;;4.32;;
43327;SDS011;28923;45.412;10.852;2023-06-22T07:01:08;6.20;;;4.07;;
43327;SDS011;28923;45.412;10.852;2023-06-22T07:03:33;8.27;;;4.15;;
43327;SDS011;28923;45.412;10.852;2023-06-22T07:05:59;7.00;;;4.00;;
43327;SDS011;28923;45.412;10.852;2023-06-22T07:08:24;7.53;;;3.92;;
43327;SDS011;28923;45.412;10.852;2023-06-22T07:10:50;6.75;;;3.75;;
43327;SDS011;28923;45.412;10.852;2023-06-22T07:13:15;6.30;;;3.58;;
43327;SDS011;28923;45.412;10.852;2023-06-22T07:15:41;5.97;;;3.40;;
43327;SDS011;28923;45.412;10.852;2023-06-22T07:18:07;5.18;;;3.63;;
43327;SDS011;28923;45.412;10.852;2023-06-22T07:20:32;5.03;;;3.30;;
43327;SDS011;28923;45.412;10.852;2023-06-22T07:22:57;4.88;;;3.00;;
43327;SDS011;28923;45.412;10.852;2023-06-22T07:25:23;5.53;;;3.60;;
43327;SDS011;28923;45.412;10.852;2023-06-22T07:28:02;4.53;;;3.00;;
43327;SDS011;28923;45.412;10.852;2023-06-22T07:30:28;5.65;;;3.30;;
43327;SDS011;28923;45.412;10.852;2023-06-22T07:32:54;4.57;;;3.17;;
43327;SDS011;28923;45.412;10.852;2023-06-22T07:35:20;3.55;;;2.88;;
43327;SDS011;28923;45.412;10.852;2023-06-22T07:37:45;4.30;;;3.00;;
43327;SDS011;28923;45.412;10.852;2023-06-22T07:40:11;5.18;;;3.00;;
43327;SDS011;28923;45.412;10.852;2023-06-22T07:42:36;2.75;;;2.50;;
43327;SDS011;28923;45.412;10.852;2023-06-22T07:45:02;4.78;;;2.80;;
43327;SDS011;28923;45.412;10.852;2023-06-22T07:47:28;4.72;;;2.97;;
43327;SDS011;28923;45.412;10.852;2023-06-22T07:49:54;3.58;;;2.60;;
43327;SDS011;28923;45.412;10.852;2023-06-22T07:52:20;4.43;;;2.78;;
43327;SDS011;28923;45.412;10.852;2023-06-22T07:54:46;4.22;;;2.45;;
43327;SDS011;28923;45.412;10.852;2023-06-22T07:57:11;4.07;;;2.58;;
43327;SDS011;28923;45.412;10.852;2023-06-22T07:59:37;4.97;;;2.65;;
43327;SDS011;28923;45.412;10.852;2023-06-22T08:02:02;4.10;;;2.90;;
43327;SDS011;28923;45.412;10.852;2023-06-22T08:04:28;3.75;;;2.58;;
43327;SDS011;28923;45.412;10.852;2023-06-22T08:06:56;4.55;;;2.55;;
43327;SDS011;28923;45.412;10.852;2023-06-22T08:09:21;3.72;;;2.70;;
43327;SDS011;28923;45.412;10.852;2023-06-22T08:11:47;3.63;;;2.78;;
43327;SDS011;28923;45.412;10.852;2023-06-22T08:14:13;4.00;;;2.55;;
43327;SDS011;28923;45.412;10.852;2023-06-22T08:16:38;2.55;;;2.30;;
43327;SDS011;28923;45.412;10.852;2023-06-22T08:19:04;3.88;;;2.53;;
43327;SDS011;28923;45.412;10.852;2023-06-22T08:21:29;3.30;;;2.30;;
43327;SDS011;28923;45.412;10.852;2023-06-22T08:23:55;2.75;;;2.00;;
43327;SDS011;28923;45.412;10.852;2023-06-22T08:26:20;2.80;;;2.15;;
43327;SDS011;28923;45.412;10.852;2023-06-22T08:28:47;3.20;;;2.33;;
43327;SDS011;28923;45.412;10.852;2023-06-22T08:31:12;2.65;;;1.95;;
43327;SDS011;28923;45.412;10.852;2023-06-22T08:33:39;2.30;;;2.05;;
43327;SDS011;28923;45.412;10.852;2023-06-22T08:36:04;2.35;;;2.10;;
43327;SDS011;28923;45.412;10.852;2023-06-22T08:38:31;2.65;;;2.20;;
43327;SDS011;28923;45.412;10.852;2023-06-22T08:40:56;2.67;;;2.10;;
43327;SDS011;28923;45.412;10.852;2023-06-22T08:43:22;3.47;;;2.00;;
43327;SDS011;28923;45.412;10.852;2023-06-22T08:45:47;3.13;;;2.13;;
43327;SDS011;28923;45.412;10.852;2023-06-22T08:48:13;2.25;;;2.03;;
43327;SDS011;28923;45.412;10.852;2023-06-22T08:50:38;1.95;;;1.80;;
43327;SDS011;28923;45.412;10.852;2023-06-22T08:53:05;2.85;;;1.92;;
43327;SDS011;28923;45.412;10.852;2023-06-22T08:55:31;1.90;;;1.70;;
43327;SDS011;28923;45.412;10.852;2023-06-22T08:57:56;2.00;;;1.80;;
43327;SDS011;28923;45.412;10.852;2023-06-22T09:00:22;3.30;;;2.25;;
43327;SDS011;28923;45.412;10.852;2023-06-22T09:02:47;2.83;;;1.90;;
43327;SDS011;28923;45.412;10.852;2023-06-22T09:05:12;2.47;;;1.88;;
43327;SDS011;28923;45.412;10.852;2023-06-22T09:07:38;1.85;;;1.70;;
43327;SDS011;28923;45.412;10.852;2023-06-22T09:10:04;2.30;;;2.10;;
43327;SDS011;28923;45.412;10.852;2023-06-22T09:12:30;2.15;;;1.80;;
43327;SDS011;28923;45.412;10.852;2023-06-22T09:14:57;1.88;;;1.75;;
43327;SDS011;28923;45.412;10.852;2023-06-22T09:17:24;2.03;;;1.75;;
43327;SDS011;28923;45.412;10.852;2023-06-22T09:19:50;1.85;;;1.70;;
43327;SDS011;28923;45.412;10.852;2023-06-22T09:22:15;2.05;;;1.73;;
43327;SDS011;28923;45.412;10.852;2023-06-22T09:24:41;3.08;;;1.83;;
43327;SDS011;28923;45.412;10.852;2023-06-22T09:27:06;2.60;;;1.80;;
43327;SDS011;28923;45.412;10.852;2023-06-22T09:29:31;1.98;;;1.80;;
43327;SDS011;28923;45.412;10.852;2023-06-22T09:31:59;1.50;;;1.40;;
43327;SDS011;28923;45.412;10.852;2023-06-22T09:34:24;2.47;;;1.80;;
43327;SDS011;28923;45.412;10.852;2023-06-22T09:36:50;2.58;;;1.77;;
43327;SDS011;28923;45.412;10.852;2023-06-22T09:39:17;2.13;;;1.67;;
43327;SDS011;28923;45.412;10.852;2023-06-22T09:41:42;2.70;;;1.70;;
43327;SDS011;28923;45.412;10.852;2023-06-22T09:44:08;1.80;;;1.70;;
43327;SDS011;28923;45.412;10.852;2023-06-22T09:46:37;1.48;;;1.38;;
43327;SDS011;28923;45.412;10.852;2023-06-22T09:49:02;2.22;;;1.65;;
43327;SDS011;28923;45.412;10.852;2023-06-22T09:51:28;1.70;;;1.40;;
43327;SDS011;28923;45.412;10.852;2023-06-22T09:53:53;1.90;;;1.48;;
43327;SDS011;28923;45.412;10.852;2023-06-22T09:56:19;1.95;;;1.52;;
43327;SDS011;28923;45.412;10.852;2023-06-22T09:58:46;2.08;;;1.70;;
43327;SDS011;28923;45.412;10.852;2023-06-22T10:01:15;2.22;;;1.42;;
43327;SDS011;28923;45.412;10.852;2023-06-22T10:03:41;1.77;;;1.40;;
43327;SDS011;28923;45.412;10.852;2023-06-22T10:06:08;1.40;;;1.30;;
43327;SDS011;28923;45.412;10.852;2023-06-22T10:08:34;2.75;;;1.73;;
43327;SDS011;28923;45.412;10.852;2023-06-22T10:11:00;1.83;;;1.63;;
43327;SDS011;28923;45.412;10.852;2023-06-22T10:13:25;2.10;;;1.58;;
43327;SDS011;28923;45.412;10.852;2023-06-22T10:15:51;1.88;;;1.60;;
43327;SDS011;28923;45.412;10.852;2023-06-22T10:18:17;1.52;;;1.42;;
43327;SDS011;28923;45.412;10.852;2023-06-22T10:20:43;1.60;;;1.40;;
43327;SDS011;28923;45.412;10.852;2023-06-22T10:23:08;2.03;;;1.63;;
43327;SDS011;28923;45.412;10.852;2023-06-22T10:25:34;1.98;;;1.45;;
43327;SDS011;28923;45.412;10.852;2023-06-22T10:27:59;1.67;;;1.42;;
43327;SDS011;28923;45.412;10.852;2023-06-22T10:30:24;1.40;;;1.30;;
43327;SDS011;28923;45.412;10.852;2023-06-22T10:32:50;2.58;;;1.55;;
43327;SDS011;28923;45.412;10.852;2023-06-22T10:35:15;1.27;;;1.17;;
43327;SDS011;28923;45.412;10.852;2023-06-22T10:37:44;2.47;;;1.35;;
43327;SDS011;28923;45.412;10.852;2023-06-22T10:40:11;1.52;;;1.40;;
43327;SDS011;28923;45.412;10.852;2023-06-22T10:42:37;2.22;;;1.40;;
43327;SDS011;28923;45.412;10.852;2023-06-22T10:45:02;1.27;;;1.10;;
43327;SDS011;28923;45.412;10.852;2023-06-22T10:47:27;1.20;;;1.10;;
43327;SDS011;28923;45.412;10.852;2023-06-22T10:49:53;1.60;;;1.23;;
43327;SDS011;28923;45.412;10.852;2023-06-22T10:52:18;1.42;;;1.33;;
43327;SDS011;28923;45.412;10.852;2023-06-22T10:54:44;1.70;;;1.58;;
43327;SDS011;28923;45.412;10.852;2023-06-22T10:57:09;1.83;;;1.20;;
43327;SDS011;28923;45.412;10.852;2023-06-22T10:59:35;1.30;;;1.20;;
43327;SDS011;28923;45.412;10.852;2023-06-22T11:02:00;1.65;;;1.25;;
43327;SDS011;28923;45.412;10.852;2023-06-22T11:04:26;2.70;;;1.38;;
43327;SDS011;28923;45.412;10.852;2023-06-22T11:06:51;1.30;;;1.20;;
43327;SDS011;28923;45.412;10.852;2023-06-22T11:09:17;1.33;;;1.23;;
43327;SDS011;28923;45.412;10.852;2023-06-22T11:11:46;1.48;;;1.35;;
43327;SDS011;28923;45.412;10.852;2023-06-22T11:14:12;1.67;;;1.30;;
43327;SDS011;28923;45.412;10.852;2023-06-22T11:16:37;1.40;;;1.30;;
43327;SDS011;28923;45.412;10.852;2023-06-22T11:19:04;1.30;;;1.20;;
43327;SDS011;28923;45.412;10.852;2023-06-22T11:21:30;1.55;;;1.20;;
43327;SDS011;28923;45.412;10.852;2023-06-22T11:23:55;1.90;;;1.48;;
43327;SDS011;28923;45.412;10.852;2023-06-22T11:26:20;1.35;;;1.25;;
43327;SDS011;28923;45.412;10.852;2023-06-22T11:28:46;1.27;;;1.17;;
43327;SDS011;28923;45.412;10.852;2023-06-22T11:31:12;1.58;;;1.48;;
43327;SDS011;28923;45.412;10.852;2023-06-22T11:33:37;2.22;;;1.30;;
43327;SDS011;28923;45.412;10.852;2023-06-22T11:36:03;1.45;;;1.17;;
43327;SDS011;28923;45.412;10.852;2023-06-22T11:38:28;1.23;;;1.10;;
43327;SDS011;28923;45.412;10.852;2023-06-22T11:40:54;1.42;;;1.33;;
43327;SDS011;28923;45.412;10.852;2023-06-22T11:43:19;1.40;;;1.30;;
43327;SDS011;28923;45.412;10.852;2023-06-22T11:45:44;1.30;;;1.20;;
43327;SDS011;28923;45.412;10.852;2023-06-22T11:48:10;1.40;;;1.30;;
43327;SDS011;28923;45.412;10.852;2023-06-22T11:50:35;1.00;;;1.00;;
43327;SDS011;28923;45.412;10.852;2023-06-22T11:53:04;1.50;;;1.25;;
43327;SDS011;28923;45.412;10.852;2023-06-22T11:55:29;1.30;;;1.20;;
43327;SDS011;28923;45.412;10.852;2023-06-22T11:57:55;1.40;;;1.30;;
43327;SDS011;28923;45.412;10.852;2023-06-22T12:00:21;1.42;;;1.33;;
43327;SDS011;28923;45.412;10.852;2023-06-22T12:02:49;1.02;;;1.02;;
43327;SDS011;28923;45.412;10.852;2023-06-22T12:05:16;1.38;;;1.08;;
43327;SDS011;28923;45.412;10.852;2023-06-22T12:07:42;1.17;;;1.08;;
43327;SDS011;28923;45.412;10.852;2023-06-22T12:10:07;1.17;;;0.90;;
43327;SDS011;28923;45.412;10.852;2023-06-22T12:12:32;1.13;;;1.02;;
43327;SDS011;28923;45.412;10.852;2023-06-22T12:14:58;2.13;;;1.00;;
43327;SDS011;28923;45.412;10.852;2023-06-22T12:17:28;1.30;;;1.20;;
43327;SDS011;28923;45.412;10.852;2023-06-22T12:19:53;1.20;;;1.05;;
43327;SDS011;28923;45.412;10.852;2023-06-22T12:22:19;1.15;;;1.05;;
43327;SDS011;28923;45.412;10.852;2023-06-22T12:24:44;1.10;;;1.00;;
43327;SDS011;28923;45.412;10.852;2023-06-22T12:27:10;1.20;;;1.10;;
43327;SDS011;28923;45.412;10.852;2023-06-22T12:29:35;0.90;;;0.90;;
43327;SDS011;28923;45.412;10.852;2023-06-22T12:32:01;1.38;;;1.05;;
43327;SDS011;28923;45.412;10.852;2023-06-22T12:34:26;1.45;;;1.10;;
43327;SDS011;28923;45.412;10.852;2023-06-22T12:36:51;1.08;;;1.00;;
43327;SDS011;28923;45.412;10.852;2023-06-22T12:39:19;1.30;;;1.20;;
43327;SDS011;28923;45.412;10.852;2023-06-22T12:41:44;1.33;;;1.23;;
43327;SDS011;28923;45.412;10.852;2023-06-22T12:44:10;1.20;;;1.10;;
43327;SDS011;28923;45.412;10.852;2023-06-22T12:46:35;1.15;;;1.05;;
43327;SDS011;28923;45.412;10.852;2023-06-22T12:49:03;1.27;;;1.02;;
43327;SDS011;28923;45.412;10.852;2023-06-22T12:51:29;1.50;;;1.40;;
43327;SDS011;28923;45.412;10.852;2023-06-22T12:53:54;1.42;;;1.33;;
43327;SDS011;28923;45.412;10.852;2023-06-22T12:56:20;0.98;;;0.88;;
43327;SDS011;28923;45.412;10.852;2023-06-22T12:58:45;0.93;;;0.90;;
43327;SDS011;28923;45.412;10.852;2023-06-22T13:01:11;2.38;;;1.10;;
43327;SDS011;28923;45.412;10.852;2023-06-22T13:03:36;1.50;;;1.40;;
43327;SDS011;28923;45.412;10.852;2023-06-22T13:06:02;1.08;;;1.00;;
43327;SDS011;28923;45.412;10.852;2023-06-22T13:08:28;1.15;;;1.10;;
43327;SDS011;28923;45.412;10.852;2023-06-22T13:10:54;1.00;;;0.90;;
43327;SDS011;28923;45.412;10.852;2023-06-22T13:13:23;1.33;;;1.00;;
43327;SDS011;28923;45.412;10.852;2023-06-22T13:15:49;1.40;;;1.00;;
43327;SDS011;28923;45.412;10.852;2023-06-22T13:18:15;1.20;;;1.10;;
43327;SDS011;28923;45.412;10.852;2023-06-22T13:20:40;1.45;;;1.00;;
43327;SDS011;28923;45.412;10.852;2023-06-22T13:23:05;1.17;;;1.10;;
43327;SDS011;28923;45.412;10.852;2023-06-22T13:25:31;1.25;;;1.15;;
43327;SDS011;28923;45.412;10.852;2023-06-22T13:27:56;1.15;;;1.10;;
43327;SDS011;28923;45.412;10.852;2023-06-22T13:30:22;1.00;;;1.00;;
43327;SDS011;28923;45.412;10.852;2023-06-22T13:32:47;1.77;;;0.98;;
43327;SDS011;28923;45.412;10.852;2023-06-22T13:35:12;2.45;;;1.17;;
43327;SDS011;28923;45.412;10.852;2023-06-22T13:37:38;1.73;;;1.02;;
43327;SDS011;28923;45.412;10.852;2023-06-22T13:40:05;1.38;;;1.10;;
43327;SDS011;28923;45.412;10.852;2023-06-22T13:42:34;1.40;;;1.10;;
43327;SDS011;28923;45.412;10.852;2023-06-22T13:45:00;1.40;;;1.30;;
43327;SDS011;28923;45.412;10.852;2023-06-22T13:47:25;3.92;;;1.33;;
43327;SDS011;28923;45.412;10.852;2023-06-22T13:49:51;1.48;;;1.10;;
43327;SDS011;28923;45.412;10.852;2023-06-22T13:52:16;2.17;;;1.00;;
43327;SDS011;28923;45.412;10.852;2023-06-22T13:54:42;1.35;;;1.25;;
43327;SDS011;28923;45.412;10.852;2023-06-22T13:57:07;1.52;;;1.42;;
43327;SDS011;28923;45.412;10.852;2023-06-22T13:59:33;1.38;;;1.25;;
43327;SDS011;28923;45.412;10.852;2023-06-22T14:01:59;1.25;;;1.15;;
43327;SDS011;28923;45.412;10.852;2023-06-22T14:04:27;3.55;;;1.30;;
43327;SDS011;28923;45.412;10.852;2023-06-22T14:06:54;4.60;;;1.27;;
43327;SDS011;28923;45.412;10.852;2023-06-22T14:09:21;1.50;;;1.40;;
43327;SDS011;28923;45.412;10.852;2023-06-22T14:11:47;1.50;;;1.40;;
43327;SDS011;28923;45.412;10.852;2023-06-22T14:14:13;1.80;;;1.30;;
43327;SDS011;28923;45.412;10.852;2023-06-22T14:16:39;2.10;;;1.10;;
43327;SDS011;28923;45.412;10.852;2023-06-22T14:19:05;1.50;;;1.40;;
43327;SDS011;28923;45.412;10.852;2023-06-22T14:21:32;1.23;;;1.08;;
43327;SDS011;28923;45.412;10.852;2023-06-22T14:23:58;2.08;;;1.50;;
43327;SDS011;28923;45.412;10.852;2023-06-22T14:26:24;2.08;;;1.40;;
43327;SDS011;28923;45.412;10.852;2023-06-22T14:28:51;1.63;;;1.17;;
43327;SDS011;28923;45.412;10.852;2023-06-22T14:31:18;1.35;;;1.20;;
43327;SDS011;28923;45.412;10.852;2023-06-22T14:33:48;1.75;;;1.17;;
43327;SDS011;28923;45.412;10.852;2023-06-22T14:36:17;2.03;;;1.55;;
43327;SDS011;28923;45.412;10.852;2023-06-22T14:38:43;2.03;;;1.38;;
43327;SDS011;28923;45.412;10.852;2023-06-22T14:41:11;1.42;;;1.33;;
43327;SDS011;28923;45.412;10.852;2023-06-22T14:43:37;1.95;;;1.50;;
43327;SDS011;28923;45.412;10.852;2023-06-22T14:46:03;1.30;;;1.20;;
43327;SDS011;28923;45.412;10.852;2023-06-22T14:48:30;1.60;;;1.20;;
43327;SDS011;28923;45.412;10.852;2023-06-22T14:50:57;1.42;;;1.10;;
43327;SDS011;28923;45.412;10.852;2023-06-22T14:53:26;1.88;;;1.08;;
43327;SDS011;28923;45.412;10.852;2023-06-22T14:55:52;1.30;;;1.20;;
43327;SDS011;28923;45.412;10.852;2023-06-22T14:58:20;1.38;;;1.20;;
43327;SDS011;28923;45.412;10.852;2023-06-22T15:00:46;1.25;;;1.13;;
43327;SDS011;28923;45.412;10.852;2023-06-22T15:03:12;1.33;;;1.10;;
43327;SDS011;28923;45.412;10.852;2023-06-22T15:05:43;1.35;;;1.25;;
43327;SDS011;28923;45.412;10.852;2023-06-22T15:08:09;1.63;;;1.20;;
43327;SDS011;28923;45.412;10.852;2023-06-22T15:10:36;1.50;;;1.40;;
43327;SDS011;28923;45.412;10.852;2023-06-22T15:13:02;2.38;;;1.35;;
43327;SDS011;28923;45.412;10.852;2023-06-22T15:15:28;1.20;;;1.10;;
43327;SDS011;28923;45.412;10.852;2023-06-22T15:17:55;2.33;;;1.00;;
43327;SDS011;28923;45.412;10.852;2023-06-22T15:20:21;7.93;;;1.30;;
43327;SDS011;28923;45.412;10.852;2023-06-22T15:22:47;3.38;;;1.30;;
43327;SDS011;28923;45.412;10.852;2023-06-22T15:25:12;6.47;;;1.30;;
43327;SDS011;28923;45.412;10.852;2023-06-22T15:27:38;7.57;;;1.55;;
43327;SDS011;28923;45.412;10.852;2023-06-22T15:30:05;1.95;;;1.10;;
43327;SDS011;28923;45.412;10.852;2023-06-22T15:32:31;3.53;;;0.93;;
43327;SDS011;28923;45.412;10.852;2023-06-22T15:34:57;4.38;;;1.60;;
43327;SDS011;28923;45.412;10.852;2023-06-22T15:37:23;4.18;;;1.58;;
43327;SDS011;28923;45.412;10.852;2023-06-22T15:39:49;1.70;;;1.20;;
43327;SDS011;28923;45.412;10.852;2023-06-22T15:42:16;1.98;;;1.40;;
43327;SDS011;28923;45.412;10.852;2023-06-22T15:44:42;2.22;;;1.30;;
43327;SDS011;28923;45.412;10.852;2023-06-22T15:47:09;1.48;;;1.02;;
43327;SDS011;28923;45.412;10.852;2023-06-22T15:49:34;1.30;;;1.10;;
43327;SDS011;28923;45.412;10.852;2023-06-22T15:51:59;1.85;;;1.15;;
43327;SDS011;28923;45.412;10.852;2023-06-22T15:54:25;2.05;;;1.35;;
43327;SDS011;28923;45.412;10.852;2023-06-22T15:56:50;1.70;;;1.20;;
43327;SDS011;28923;45.412;10.852;2023-06-22T15:59:15;1.38;;;1.20;;
43327;SDS011;28923;45.412;10.852;2023-06-22T16:01:41;2.45;;;1.20;;
43327;SDS011;28923;45.412;10.852;2023-06-22T16:04:07;2.15;;;1.30;;
43327;SDS011;28923;45.412;10.852;2023-06-22T16:06:33;1.00;;;0.90;;
43327;SDS011;28923;45.412;10.852;2023-06-22T16:08:58;2.63;;;1.10;;
43327;SDS011;28923;45.412;10.852;2023-06-22T16:11:23;1.88;;;1.13;;
43327;SDS011;28923;45.412;10.852;2023-06-22T16:13:49;1.02;;;0.93;;
43327;SDS011;28923;45.412;10.852;2023-06-22T16:16:14;1.85;;;1.25;;
43327;SDS011;28923;45.412;10.852;2023-06-22T16:18:41;2.35;;;1.23;;
43327;SDS011;28923;45.412;10.852;2023-06-22T16:21:07;1.50;;;1.10;;
43327;SDS011;28923;45.412;10.852;2023-06-22T16:23:32;1.83;;;1.15;;
43327;SDS011;28923;45.412;10.852;2023-06-22T16:25:58;0.85;;;0.82;;
43327;SDS011;28923;45.412;10.852;2023-06-22T16:28:23;1.05;;;1.00;;
43327;SDS011;28923;45.412;10.852;2023-06-22T16:30:48;1.67;;;1.10;;
43327;SDS011;28923;45.412;10.852;2023-06-22T16:33:14;2.10;;;1.27;;
43327;SDS011;28923;45.412;10.852;2023-06-22T16:35:39;1.98;;;1.13;;
43327;SDS011;28923;45.412;10.852;2023-06-22T16:38:06;1.10;;;1.00;;
43327;SDS011;28923;45.412;10.852;2023-06-22T16:40:31;2.15;;;1.10;;
43327;SDS011;28923;45.412;10.852;2023-06-22T16:42:57;1.75;;;0.90;;
43327;SDS011;28923;45.412;10.852;2023-06-22T16:45:22;1.83;;;1.20;;
43327;SDS011;28923;45.412;10.852;2023-06-22T16:47:48;1.27;;;1.17;;
43327;SDS011;28923;45.412;10.852;2023-06-22T16:50:14;1.05;;;0.93;;
43327;SDS011;28923;45.412;10.852;2023-06-22T16:52:39;1.10;;;1.00;;
43327;SDS011;28923;45.412;10.852;2023-06-22T16:55:05;1.17;;;1.08;;
43327;SDS011;28923;45.412;10.852;2023-06-22T16:57:30;1.45;;;1.10;;
43327;SDS011;28923;45.412;10.852;2023-06-22T16:59:56;1.52;;;1.25;;
43327;SDS011;28923;45.412;10.852;2023-06-22T17:02:22;1.02;;;1.00;;
43327;SDS011;28923;45.412;10.852;2023-06-22T17:04:48;1.25;;;1.15;;
43327;SDS011;28923;45.412;10.852;2023-06-22T17:07:14;1.88;;;1.08;;
43327;SDS011;28923;45.412;10.852;2023-06-22T17:09:40;2.42;;;1.08;;
43327;SDS011;28923;45.412;10.852;2023-06-22T17:12:07;1.05;;;0.95;;
43327;SDS011;28923;45.412;10.852;2023-06-22T17:14:33;1.60;;;1.10;;
43327;SDS011;28923;45.412;10.852;2023-06-22T17:16:58;1.80;;;1.27;;
43327;SDS011;28923;45.412;10.852;2023-06-22T17:19:25;1.10;;;1.00;;
43327;SDS011;28923;45.412;10.852;2023-06-22T17:21:51;1.45;;;1.08;;
43327;SDS011;28923;45.412;10.852;2023-06-22T17:24:16;2.05;;;1.00;;
43327;SDS011;28923;45.412;10.852;2023-06-22T17:26:45;1.00;;;0.90;;
43327;SDS011;28923;45.412;10.852;2023-06-22T17:29:10;2.55;;;1.08;;
43327;SDS011;28923;45.412;10.852;2023-06-22T17:31:36;1.02;;;0.93;;
43327;SDS011;28923;45.412;10.852;2023-06-22T17:34:11;1.00;;;0.90;;
43327;SDS011;28923;45.412;10.852;2023-06-22T17:39:09;1.42;;;1.00;;
43327;SDS011;28923;45.412;10.852;2023-06-22T17:41:34;4.38;;;1.25;;
43327;SDS011;28923;45.412;10.852;2023-06-22T17:44:03;1.42;;;1.20;;
43327;SDS011;28923;45.412;10.852;2023-06-22T17:46:35;2.67;;;1.15;;
43327;SDS011;28923;45.412;10.852;2023-06-22T17:49:01;1.20;;;1.10;;
43327;SDS011;28923;45.412;10.852;2023-06-22T17:51:26;1.33;;;1.10;;
43327;SDS011;28923;45.412;10.852;2023-06-22T17:53:52;1.38;;;1.10;;
43327;SDS011;28923;45.412;10.852;2023-06-22T17:56:17;1.40;;;1.20;;
43327;SDS011;28923;45.412;10.852;2023-06-22T17:58:49;5.70;;;1.10;;
43327;SDS011;28923;45.412;10.852;2023-06-22T18:01:15;2.45;;;1.30;;
43327;SDS011;28923;45.412;10.852;2023-06-22T18:03:40;3.45;;;1.20;;
43327;SDS011;28923;45.412;10.852;2023-06-22T18:06:06;2.65;;;1.67;;
43327;SDS011;28923;45.412;10.852;2023-06-22T18:08:31;2.47;;;1.10;;
43327;SDS011;28923;45.412;10.852;2023-06-22T18:10:57;1.95;;;1.20;;
43327;SDS011;28923;45.412;10.852;2023-06-22T18:13:23;1.55;;;1.00;;
43327;SDS011;28923;45.412;10.852;2023-06-22T18:15:49;2.72;;;1.20;;
43327;SDS011;28923;45.412;10.852;2023-06-22T18:18:16;2.20;;;1.58;;
43327;SDS011;28923;45.412;10.852;2023-06-22T18:20:42;1.30;;;0.95;;
43327;SDS011;28923;45.412;10.852;2023-06-22T18:23:09;3.13;;;1.38;;
43327;SDS011;28923;45.412;10.852;2023-06-22T18:25:34;3.60;;;1.15;;
43327;SDS011;28923;45.412;10.852;2023-06-22T18:28:01;4.28;;;1.30;;
43327;SDS011;28923;45.412;10.852;2023-06-22T18:30:28;2.03;;;1.27;;
43327;SDS011;28923;45.412;10.852;2023-06-22T18:32:54;1.10;;;0.88;;
43327;SDS011;28923;45.412;10.852;2023-06-22T18:35:19;1.10;;;1.00;;
43327;SDS011;28923;45.412;10.852;2023-06-22T18:37:45;5.88;;;1.38;;
43327;SDS011;28923;45.412;10.852;2023-06-22T18:40:11;1.63;;;1.30;;
43327;SDS011;28923;45.412;10.852;2023-06-22T18:42:44;1.58;;;1.30;;
43327;SDS011;28923;45.412;10.852;2023-06-22T18:45:26;1.40;;;1.30;;
43327;SDS011;28923;45.412;10.852;2023-06-22T18:47:55;1.13;;;1.00;;
43327;SDS011;28923;45.412;10.852;2023-06-22T18:50:34;4.57;;;1.27;;
43327;SDS011;28923;45.412;10.852;2023-06-22T18:53:03;8.50;;;1.60;;
43327;SDS011;28923;45.412;10.852;2023-06-22T18:55:30;2.03;;;1.33;;
43327;SDS011;28923;45.412;10.852;2023-06-22T18:58:14;3.38;;;1.50;;
43327;SDS011;28923;45.412;10.852;2023-06-22T19:00:40;5.13;;;1.60;;